Provo, UT (84603)

11:50 PM MDT on September 23, 2014 (GMT -0600)
Snake Hill Farm | Change Station
CLOSE
Current Station
Personal Weather Station
Location: Orem, UT
Elevation: 4741 ft
Nearby Weather Stations

Elev 4741 ft 40.26 °N, 111.69 °W | Updated 3 seconds ago

Clear
Clear
63.1 °F
Feels Like 63.1 °F
N
0.0
Wind Variable Wind from SW
Gusts 0.0 mph

Today
High -- | Low -- °F
--% Chance of Precip.
Yesterday
High -- | Low -- °F
Precip. -- in
7:15 AM 7:22 PM
Waning Crescent, 0% visible
Pressure 30.17 in
Visibility 10.0 miles
Clouds Clear
Dew Point 49 °F
Humidity 60%
Rainfall 0.00 in
Snow Depth 0 in , 0 in , 0 in
UV 0 out of 12
Pollen 4.80 out of 12
Air Quality Not available.
Flu Activity Not available.
METAR KPVU 240535Z AUTO 13004KT 10SM CLR 16/10 A3017 RMK AO1

More Conditions Fewer Conditions

Pressure 30.17 in
Visibility 10.0 miles
Clouds Clear
Dew Point 49 °F
Humidity 60%
Rainfall 0.00 in
Snow Depth 0 in , 0 in , 0 in
UV 0 out of 12
Pollen 4.80 out of 12
Air Quality Not available.
Flu Activity Not available.
METAR KPVU 240535Z AUTO 13004KT 10SM CLR 16/10 A3017 RMK AO1

More Conditions Fewer Conditions

10-Day Weather Forecast

Almanac

Astronomy

Sep. 23, 2014 Rise Set
Actual Time 7:15 AM MDT 7:22 PM MDT
Civil Twilight 6:48 AM MDT 7:49 PM MDT
Nautical Twilight 6:16 AM MDT 8:20 PM MDT
Astronomical Twilight 5:44 AM MDT 8:53 PM MDT
Moon 6:43 AM MDT (9/23) 7:02 PM MDT (9/23)
Length of Visible Light 13h 00m
Length of Day
12h 06m
Tomorrow will be 2m 38s shorter.
Waning Crescent, 0% of the Moon is Illuminated
Sep 24
Waning Crescent
Sep 24
New
Oct 1
First Quarter
Oct 8
Full
Oct 15
Last Quarter

Yesterday's Extremes

State Highs State Lows

Community

WunderPhotos

Upload Photos

1,755,891 photos uploaded!

WunderBlogs® & News

Nearby

Snow Depth

Station Depth Elevation
Ben Lomond Peak 0 in 8000 ft
Strawberry Divide 0 in 8400 ft
Box Creek 0 in 9800 ft
Rock Creek 0 in 7900 ft
Red Pine Ridge 0 in 9200 ft

Earthquake Activity

City Distance Mag. Time & Date
No recent earthquake activity has been reported nearby.
Minimum magnitude displayed is 2.5.

Coastal Water Temperatures

Place Temperature
No Stations Reporting

Nearby Weather Stations